Terminal Aerodrome Forecast
Issued by NWS Quad Cities IA IL

Home | Current Version | Previous Version | Text Only | Print | Product List | Glossary On
Versions: 1 2 3 4 5 6 7 8 9 10 11 12 13 14 15 16 17 18 19 20
000
FTUS43 KDVN 151748
TAFDBQ
TAF
KDBQ 151748Z 1518/1618 12005KT P6SM BKN100
     FM161100 10005KT 4SM -SNPL BR BKN009
     FM161300 10008KT 3SM -FZRA BR OVC005=

USA.gov is the U.S. government's official web portal to all federal, state and local government web resources and services.